Time;durP1;ratioP1;P1;durP2;ratioP2;P2;SDS_P1;SDS_P2;PMS_P1;PMS_P2;Temp;Humidity;BMP_temperature;BMP_pressure;BME280_temperature;BME280_humidity;BME280_pressure;Samples;Min_cycle;Max_cycle;Signal;HPM_P1;HPM_P2
2022/05/21 00:02:23;;;;;;;;;3.00;3.00;;;;;18.96;57.05;102022.00;5071277;27;46355;-78
2022/05/21 00:04:49;;;;;;;;;3.00;3.00;;;;;18.98;57.07;102023.63;5076261;28;45422;-78
2022/05/21 00:07:14;;;;;;;;;3.33;2.00;;;;;19.01;57.08;102037.94;5074385;27;46057;-78
2022/05/21 00:09:40;;;;;;;;;4.33;3.00;;;;;18.86;57.16;102005.44;5072505;28;45426;-78
2022/05/21 00:12:06;;;;;;;;;2.67;1.67;;;;;19.01;57.03;102032.53;5070550;28;45849;-78
2022/05/21 00:14:34;;;;;;;;;2.00;2.00;;;;;18.86;57.52;102001.88;5075019;27;45579;-78
2022/05/21 00:17:00;;;;;;;;;1.00;1.00;;;;;18.97;57.09;102030.00;5076044;27;45703;-78
2022/05/21 00:19:25;;;;;;;;;2.33;2.00;;;;;18.77;57.53;102000.59;5073974;27;45738;-78
2022/05/21 00:21:51;;;;;;;;;2.00;2.00;;;;;18.92;57.44;102032.13;5074642;27;45592;-79
2022/05/21 00:24:16;;;;;;;;;3.67;3.00;;;;;18.90;57.39;102027.78;5071575;27;45552;-79
2022/05/21 00:26:41;;;;;;;;;2.00;2.00;;;;;18.88;57.75;102030.56;5073686;28;45932;-78
2022/05/21 00:29:07;;;;;;;;;3.00;3.00;;;;;18.78;57.91;102023.94;5074947;27;45543;-79
2022/05/21 00:31:32;;;;;;;;;1.00;1.00;;;;;18.69;58.01;102016.34;5075931;27;45446;-78
2022/05/21 00:33:57;;;;;;;;;2.67;2.67;;;;;18.79;58.21;102041.88;5076454;27;45428;-78
2022/05/21 00:36:23;;;;;;;;;5.67;5.00;;;;;18.61;58.58;102016.75;5077282;27;51171;-78
2022/05/21 00:38:48;;;;;;;;;5.67;4.00;;;;;18.72;58.66;102046.72;5078346;27;45387;-78
2022/05/21 00:41:16;;;;;;;;;5.00;4.00;;;;;18.72;58.69;102044.03;5077681;27;45810;-78
2022/05/21 00:43:52;;;;;;;;;7.00;5.00;;;;;18.70;58.49;102048.66;5065824;28;45423;-79
2022/05/21 00:46:37;;;;;;;;;4.67;3.33;;;;;18.54;58.71;102013.56;5073784;28;45971;-78
2022/05/21 00:49:27;;;;;;;;;6.00;6.00;;;;;18.52;58.36;102020.00;5077562;27;45879;-78
2022/05/21 00:51:58;;;;;;;;;5.33;4.00;;;;;18.64;58.91;102035.50;5073524;27;45467;-87
2022/05/21 00:54:37;;;;;;;;;3.00;3.00;;;;;18.63;58.44;102046.38;5079487;28;45552;-86
2022/05/21 00:57:13;;;;;;;;;2.67;2.67;;;;;18.61;59.04;102034.81;5078655;27;45316;-86
2022/05/21 00:59:51;;;;;;;;;5.00;3.00;;;;;18.50;58.88;102016.53;5079305;27;45262;-86
2022/05/21 01:02:39;;;;;;;;;2.00;2.00;;;;;18.54;58.68;102032.47;5063286;28;45584;-86
2022/05/21 01:05:10;;;;;;;;;4.00;4.00;;;;;18.55;58.87;102030.63;5080040;28;45539;-86
2022/05/21 01:07:37;;;;;;;;;3.00;2.00;;;;;18.51;59.26;102034.47;5073520;28;45482;-86
2022/05/21 01:10:09;;;;;;;;;2.67;2.67;;;;;18.49;59.35;102021.03;5070773;28;45395;-85
2022/05/21 01:12:44;;;;;;;;;3.00;3.00;;;;;18.44;58.96;102028.53;5066480;28;45516;-86
2022/05/21 01:15:13;;;;;;;;;4.00;4.00;;;;;18.49;59.32;102039.06;5076791;28;45404;-86
2022/05/21 01:17:39;;;;;;;;;5.67;3.00;;;;;18.45;59.63;102038.38;5077059;28;46541;-86
2022/05/21 01:20:13;;;;;;;;;3.67;3.67;;;;;18.29;59.44;102010.50;5079217;28;45381;-86
2022/05/21 01:22:47;;;;;;;;;5.00;3.67;;;;;18.43;59.30;102034.03;5078418;27;45587;-85
2022/05/21 01:25:19;;;;;;;;;3.67;3.67;;;;;18.41;59.63;102039.50;5062295;28;45314;-86
2022/05/21 01:27:47;;;;;;;;;4.00;3.00;;;;;18.38;59.83;102038.78;5075774;28;46295;-86
2022/05/21 01:30:23;;;;;;;;;2.00;2.00;;;;;18.36;59.60;102030.81;5072890;27;45322;-85
2022/05/21 01:32:49;;;;;;;;;3.00;3.00;;;;;18.35;59.83;102035.34;5069353;28;45484;-85
2022/05/21 01:35:18;;;;;;;;;3.67;3.67;;;;;18.22;59.69;102007.28;5080623;27;45412;-85
2022/05/21 01:37:49;;;;;;;;;5.00;3.67;;;;;18.33;59.47;102026.44;5077432;27;45902;-86
2022/05/21 01:40:17;;;;;;;;;4.00;4.00;;;;;18.29;59.79;102024.00;5095432;27;45444;-86
2022/05/21 01:42:43;;;;;;;;;4.00;4.00;;;;;18.31;59.98;102031.06;5077144;27;45436;-85
2022/05/21 01:45:09;;;;;;;;;2.00;2.00;;;;;18.29;60.07;102022.16;5067604;28;45211;-86
2022/05/21 01:47:37;;;;;;;;;1.67;1.00;;;;;18.31;59.93;102019.41;5060424;28;45636;-86
2022/05/21 01:50:03;;;;;;;;;2.33;2.33;;;;;18.34;60.26;102024.63;5073186;27;45398;-86
2022/05/21 01:52:29;;;;;;;;;3.33;2.67;;;;;18.27;60.05;102012.41;5075374;28;45504;-86
2022/05/21 01:54:54;;;;;;;;;2.67;2.67;;;;;18.22;60.29;102001.00;5073208;27;45703;-86
2022/05/21 01:57:19;;;;;;;;;5.00;3.00;;;;;18.29;60.02;102021.31;5067227;28;46233;-87
2022/05/21 01:59:45;;;;;;;;;2.33;2.33;;;;;18.34;60.03;102027.31;5068421;27;45337;-86
2022/05/21 02:02:10;;;;;;;;;1.00;1.00;;;;;18.29;60.36;102007.81;5066988;28;45498;-86
2022/05/21 02:04:36;;;;;;;;;4.00;2.00;;;;;18.40;59.80;102026.09;5075735;27;45244;-86
2022/05/21 02:07:03;;;;;;;;;3.33;3.33;;;;;18.38;60.05;102023.50;5077375;28;46306;-86
2022/05/21 02:09:29;;;;;;;;;4.00;3.00;;;;;18.41;60.06;102025.16;5077949;27;45433;-86
2022/05/21 02:11:54;;;;;;;;;4.00;4.00;;;;;18.34;59.93;102006.59;5078705;27;45650;-86
2022/05/21 02:14:20;;;;;;;;;3.67;3.00;;;;;18.42;59.71;102026.88;5076102;28;45427;-86
2022/05/21 02:16:45;;;;;;;;;3.33;3.33;;;;;18.32;59.80;102005.78;5075771;28;47501;-86
2022/05/21 02:19:11;;;;;;;;;2.00;2.00;;;;;18.28;59.91;102004.22;5069951;28;45388;-86
2022/05/21 02:21:39;;;;;;;;;3.00;1.33;;;;;18.18;59.73;101981.41;5071774;27;45716;-86
2022/05/21 02:24:05;;;;;;;;;2.00;2.00;;;;;18.35;59.66;102024.53;5061836;28;45574;-86
2022/05/21 02:26:35;;;;;;;;;1.67;1.67;;;;;18.40;60.10;102020.69;5073352;28;46160;-86
2022/05/21 02:29:01;;;;;;;;;3.00;3.00;;;;;18.41;59.86;102031.41;5061052;28;45324;-86
2022/05/21 02:31:27;;;;;;;;;4.00;2.00;;;;;18.39;60.01;102024.34;5069488;28;45384;-86
2022/05/21 02:33:52;;;;;;;;;3.00;2.33;;;;;18.40;59.44;102023.38;5078585;28;45544;-86
2022/05/21 02:39:25;;;;;;;;;2.00;2.00;;;;;18.35;59.91;102023.63;5077905;27;45354;-86
2022/05/21 02:41:46;;;;;;;;;1.00;1.00;;;;;18.40;59.87;102021.56;5077980;28;45394;-86
2022/05/21 02:44:12;;;;;;;;;2.33;2.33;;;;;18.39;59.98;102018.97;5078324;27;45462;-86
2022/05/21 02:46:37;;;;;;;;;4.67;3.00;;;;;18.42;60.47;102033.13;5077151;28;50409;-86
2022/05/21 02:49:02;;;;;;;;;3.00;3.00;;;;;18.40;60.27;102029.66;5077600;28;45254;-86
2022/05/21 02:51:28;;;;;;;;;2.33;2.33;;;;;18.40;59.90;102021.56;5077148;28;45542;-86
2022/05/21 02:53:53;;;;;;;;;3.00;3.00;;;;;18.32;60.08;102011.19;5079859;27;45426;-87
2022/05/21 02:56:18;;;;;;;;;2.00;2.00;;;;;18.23;60.33;102011.69;5078487;27;45421;-86
2022/05/21 02:58:44;;;;;;;;;2.00;2.00;;;;;18.28;60.35;102017.72;5078501;28;50335;-86
2022/05/21 03:01:09;;;;;;;;;4.00;3.00;;;;;18.22;60.39;102014.50;5076111;28;45543;-86
2022/05/21 03:03:34;;;;;;;;;4.00;4.00;;;;;18.30;60.42;102039.22;5079909;28;45445;-86
2022/05/21 03:06:00;;;;;;;;;2.00;2.00;;;;;18.19;60.22;102009.25;5077331;28;52834;-86
2022/05/21 03:11:09;;;;;;;;;4.67;3.00;;;;;18.29;60.76;102038.38;5073479;28;45439;-86
2022/05/21 03:13:34;;;;;;;;;2.00;2.00;;;;;18.27;60.19;102026.78;5076631;28;45398;-86
2022/05/21 03:16:00;;;;;;;;;6.67;2.33;;;;;18.30;59.97;102032.00;5069755;28;46054;-86
2022/05/21 03:18:25;;;;;;;;;3.00;2.00;;;;;18.27;59.86;102023.22;5078033;27;45357;-87
2022/05/21 03:20:51;;;;;;;;;2.00;2.00;;;;;18.31;59.80;102025.66;5078314;27;45437;-86
2022/05/21 03:23:17;;;;;;;;;0.00;0.00;;;;;18.35;60.02;102029.94;5078181;27;45368;-86
2022/05/21 03:25:42;;;;;;;;;3.33;3.33;;;;;18.37;59.96;102029.81;5077097;27;45365;-86
2022/05/21 03:28:12;;;;;;;;;4.00;4.00;;;;;18.32;59.87;102022.00;5074459;28;45576;-86
2022/05/21 03:30:37;;;;;;;;;4.67;2.00;;;;;18.28;60.20;102020.41;5074313;27;45620;-86
2022/05/21 03:33:03;;;;;;;;;1.67;1.00;;;;;18.32;58.95;102026.53;5061729;28;45426;-87
2022/05/21 03:35:28;;;;;;;;;2.00;2.00;;;;;18.42;58.85;102041.22;5075466;28;46324;-86
2022/05/21 03:37:55;;;;;;;;;2.67;1.67;;;;;18.41;58.80;102033.25;5072363;28;45395;-86
2022/05/21 03:40:24;;;;;;;;;4.00;2.00;;;;;18.47;58.79;102035.56;5077452;28;45547;-86
2022/05/21 03:42:49;;;;;;;;;1.33;1.33;;;;;18.49;58.06;102033.66;5074781;27;45445;-87
2022/05/21 03:45:15;;;;;;;;;2.00;2.00;;;;;18.50;58.39;102041.69;5077085;28;46288;-86
2022/05/21 03:47:42;;;;;;;;;2.67;0.00;;;;;18.53;58.85;102037.94;5070288;28;45385;-86
2022/05/21 03:50:15;;;;;;;;;2.00;2.00;;;;;18.49;58.44;102026.44;5065724;27;45522;-85
2022/05/21 03:52:41;;;;;;;;;3.33;2.00;;;;;18.46;57.77;102018.50;5077889;27;45777;-79
2022/05/21 03:55:07;;;;;;;;;2.67;1.00;;;;;18.37;57.86;102005.53;5077295;28;45529;-86
2022/05/21 03:57:34;;;;;;;;;2.67;2.67;;;;;18.53;57.95;102043.34;5078078;28;45421;-86
2022/05/21 04:00:00;;;;;;;;;2.00;2.00;;;;;18.31;57.29;102014.84;5094492;27;45320;-86
2022/05/21 04:02:26;;;;;;;;;3.00;1.33;;;;;18.49;57.81;102039.94;5078101;27;45379;-78
2022/05/21 04:04:52;;;;;;;;;4.00;2.67;;;;;18.43;56.69;102026.78;5078234;27;46223;-78
2022/05/21 04:07:17;;;;;;;;;2.33;2.33;;;;;18.38;57.49;102019.91;5074869;27;45486;-79
2022/05/21 04:09:43;;;;;;;;;4.00;4.00;;;;;18.50;57.05;102032.72;5075787;28;45433;-78
2022/05/21 04:12:09;;;;;;;;;4.33;3.33;;;;;18.50;57.21;102035.44;5066460;27;45462;-86
2022/05/21 04:14:35;;;;;;;;;4.67;3.67;;;;;18.53;56.88;102036.09;5074296;28;47291;-86
2022/05/21 04:17:03;;;;;;;;;3.00;3.00;;;;;18.48;57.40;102026.53;5077749;28;45474;-78
2022/05/21 04:19:29;;;;;;;;;5.67;3.00;;;;;18.46;57.10;102025.75;5077106;27;45411;-78
2022/05/21 04:21:56;;;;;;;;;3.00;3.00;;;;;18.57;57.09;102055.72;5075019;27;45494;-78
2022/05/21 04:24:22;;;;;;;;;3.67;3.33;;;;;18.46;57.05;102031.16;5072338;28;47640;-79
2022/05/21 04:26:48;;;;;;;;;5.00;2.00;;;;;18.47;57.12;102033.78;5075146;27;45289;-78
2022/05/21 04:29:15;;;;;;;;;2.00;2.00;;;;;18.53;57.01;102040.66;5076398;27;45537;-78
2022/05/21 04:31:40;;;;;;;;;1.00;1.00;;;;;18.59;56.78;102055.63;5076562;28;45519;-78
2022/05/21 04:34:06;;;;;;;;;2.00;2.00;;;;;18.47;57.15;102035.56;5074801;28;47969;-78
2022/05/21 04:36:33;;;;;;;;;3.33;1.00;;;;;18.61;56.83;102051.88;5074221;28;45711;-78
2022/05/21 04:38:59;;;;;;;;;3.00;2.00;;;;;18.37;56.17;101993.88;5070582;28;45755;-79
2022/05/21 04:41:25;;;;;;;;;1.33;1.33;;;;;18.57;57.24;102034.13;5076245;28;45922;-78
2022/05/21 04:43:51;;;;;;;;;2.33;2.00;;;;;18.64;56.67;102046.31;5074287;27;45504;-79
2022/05/21 04:46:18;;;;;;;;;1.00;1.00;;;;;18.61;56.75;102046.47;5068003;27;45576;-79
2022/05/21 04:48:44;;;;;;;;;2.00;2.00;;;;;18.56;56.95;102038.63;5071626;27;45484;-79
2022/05/21 04:51:10;;;;;;;;;1.00;1.00;;;;;18.60;56.76;102033.94;5076363;27;45441;-78
2022/05/21 04:53:36;;;;;;;;;2.67;2.67;;;;;18.59;57.21;102034.91;5074552;28;46418;-78
2022/05/21 04:56:03;;;;;;;;;1.33;1.00;;;;;18.48;56.98;102021.13;5069886;27;45637;-78
2022/05/21 04:58:29;;;;;;;;;2.00;2.00;;;;;18.56;57.21;102041.31;5057093;28;45478;-78
2022/05/21 05:00:55;;;;;;;;;1.00;1.00;;;;;18.56;57.75;102045.88;5059945;28;45345;-78
2022/05/21 05:03:20;;;;;;;;;2.67;1.00;;;;;18.53;57.56;102037.94;5074983;27;46386;-78
2022/05/21 05:05:46;;;;;;;;;4.33;3.00;;;;;18.37;57.94;102010.06;5074440;27;45325;-78
2022/05/21 05:08:13;;;;;;;;;2.33;2.33;;;;;18.51;57.72;102029.91;5073326;28;45358;-79
2022/05/21 05:10:39;;;;;;;;;3.67;2.00;;;;;18.52;58.26;102033.53;5072168;28;45458;-79
2022/05/21 05:13:06;;;;;;;;;2.00;2.00;;;;;18.45;57.98;102030.28;5066673;27;46037;-78
2022/05/21 05:15:32;;;;;;;;;3.00;2.00;;;;;18.55;58.01;102052.22;5069818;27;45806;-78
2022/05/21 05:17:59;;;;;;;;;2.33;1.67;;;;;18.54;58.17;102045.06;5074917;28;45822;-78
2022/05/21 05:20:25;;;;;;;;;2.33;2.33;;;;;18.50;58.78;102038.13;5073664;27;45419;-79
2022/05/21 05:22:50;;;;;;;;;3.00;3.00;;;;;18.46;58.12;102032.00;5073198;27;46077;-78
2022/05/21 05:25:15;;;;;;;;;3.00;3.00;;;;;18.59;58.53;102047.50;5078604;27;45418;-86
2022/05/21 05:27:41;;;;;;;;;4.67;2.00;;;;;18.46;58.32;102021.22;5078290;28;45404;-86
2022/05/21 05:30:07;;;;;;;;;2.67;2.67;;;;;18.60;58.49;102036.63;5080835;28;45331;-86
2022/05/21 05:32:32;;;;;;;;;4.33;2.33;;;;;18.65;58.26;102031.84;5075128;28;47039;-86
2022/05/21 05:34:58;;;;;;;;;5.67;4.67;;;;;18.65;58.23;102029.13;5074551;28;45610;-86
2022/05/21 05:37:24;;;;;;;;;4.00;2.33;;;;;18.68;58.24;102026.28;5071688;28;45451;-87
2022/05/21 05:39:49;;;;;;;;;2.00;2.00;;;;;18.75;58.42;102034.88;5065813;28;45577;-86
2022/05/21 05:42:17;;;;;;;;;3.00;3.00;;;;;18.77;58.12;102038.41;5076651;27;46250;-86
2022/05/21 05:44:42;;;;;;;;;7.33;3.33;;;;;18.70;58.04;102015.38;5064536;28;45431;-85
2022/05/21 05:47:08;;;;;;;;;4.00;3.33;;;;;18.74;57.51;102014.25;5065369;28;45423;-86
2022/05/21 05:49:33;;;;;;;;;2.67;2.00;;;;;18.85;57.20;102032.56;5068428;27;45601;-85
2022/05/21 05:51:58;;;;;;;;;4.00;4.00;;;;;18.86;56.82;102026.19;5073205;28;45800;-86
2022/05/21 05:54:24;;;;;;;;;3.00;1.00;;;;;18.81;56.04;102018.34;5067959;28;45511;-86
2022/05/21 05:56:49;;;;;;;;;2.00;2.00;;;;;18.77;55.35;102020.34;5074883;28;45411;-87
2022/05/21 06:04:42;;;;;;;;;2.00;2.00;;;;;18.96;54.80;102051.72;5067741;28;45370;-89
2022/05/21 06:07:13;;;;;;;;;3.00;3.00;;;;;18.98;55.08;102052.50;5076430;27;45764;-89
2022/05/21 06:09:50;;;;;;;;;2.67;2.67;;;;;18.94;54.72;102023.91;5073205;27;45355;-89
2022/05/21 06:12:18;;;;;;;;;1.67;1.67;;;;;19.02;54.84;102035.16;5068449;28;47567;-81
2022/05/21 06:21:27;;;;;;;;;3.33;2.00;;;;;19.08;55.04;102005.06;5067209;28;45352;-83
2022/05/21 06:23:53;;;;;;;;;4.00;3.00;;;;;19.31;54.73;102040.66;5058745;28;45751;-83
2022/05/21 06:26:18;;;;;;;;;3.33;3.33;;;;;19.31;53.68;102028.00;5070184;28;45999;-83
2022/05/21 06:28:44;;;;;;;;;2.67;2.67;;;;;19.35;54.21;102028.69;5071181;27;45301;-83
2022/05/21 06:31:09;;;;;;;;;4.33;2.33;;;;;19.25;53.06;102000.50;5075393;28;45541;-83
2022/05/21 06:33:34;;;;;;;;;1.00;1.00;;;;;19.44;53.37;102028.16;5068002;28;45716;-82
2022/05/21 06:36:18;;;;;;;;;3.67;2.67;;;;;19.46;52.80;102023.53;5073088;28;45439;-82
2022/05/21 06:38:44;;;;;;;;;1.00;1.00;;;;;19.64;52.24;102044.97;5081158;27;45743;-82
2022/05/21 06:41:10;;;;;;;;;1.67;1.67;;;;;19.67;51.99;102034.00;5063485;28;45503;-82
2022/05/21 06:43:36;;;;;;;;;1.00;1.00;;;;;19.71;51.81;102036.41;5067010;28;45468;-83
2022/05/21 06:46:01;;;;;;;;;0.33;0.33;;;;;19.69;52.06;102034.78;5064820;28;45487;-81
2022/05/21 06:48:27;;;;;;;;;1.67;1.67;;;;;19.73;52.27;102029.09;5072542;28;46430;-81
2022/05/21 06:50:53;;;;;;;;;2.33;1.00;;;;;19.84;52.36;102035.69;5072854;28;45556;-83
2022/05/21 06:53:18;;;;;;;;;6.00;6.00;;;;;19.92;52.41;102042.34;5072477;27;45433;-82
2022/05/21 06:55:44;;;;;;;;;8.33;5.33;;;;;19.97;52.09;102044.75;5072308;27;45448;-82
2022/05/21 06:58:09;;;;;;;;;0.33;0.33;;;;;20.06;51.27;102038.78;5068246;28;45510;-83
2022/05/21 07:00:35;;;;;;;;;1.00;1.00;;;;;20.06;51.07;102030.66;5071472;28;45492;-82
2022/05/21 07:03:02;;;;;;;;;2.00;0.00;;;;;20.13;50.30;102033.84;5065531;28;46190;-82
2022/05/21 07:08:22;;;;;;;;;3.00;1.00;;;;;20.26;49.74;102036.66;5069959;28;45226;-81
2022/05/21 07:10:48;;;;;;;;;1.00;1.00;;;;;20.38;49.22;102047.56;5068358;28;45376;-81
2022/05/21 07:13:15;;;;;;;;;2.67;1.00;;;;;20.44;49.25;102047.16;5066324;27;45934;-80
2022/05/21 07:15:41;;;;;;;;;1.33;1.33;;;;;20.50;49.04;102051.31;5070801;28;45374;-79
2022/05/21 07:18:07;;;;;;;;;1.00;1.00;;;;;20.54;48.29;102046.56;5076415;27;45427;-80
2022/05/21 07:20:32;;;;;;;;;2.00;2.00;;;;;20.51;48.58;102036.81;5072986;28;45441;-80
2022/05/21 07:22:59;;;;;;;;;2.00;1.00;;;;;20.54;48.87;102039.31;5067490;28;45539;-80
2022/05/21 07:25:29;;;;;;;;;0.67;0.67;;;;;20.49;48.20;102014.38;5073216;28;45431;-80
2022/05/21 07:27:55;;;;;;;;;2.00;2.00;;;;;20.78;48.20;102046.84;5069822;28;45535;-80
2022/05/21 07:30:20;;;;;;;;;2.00;1.33;;;;;20.85;47.58;102046.31;5067090;28;45410;-80
2022/05/21 07:32:46;;;;;;;;;2.00;0.67;;;;;20.92;46.78;102051.34;5064253;28;46046;-82
2022/05/21 07:35:15;;;;;;;;;1.33;1.00;;;;;20.98;47.10;102056.38;5068951;28;45494;-83
2022/05/21 07:37:41;;;;;;;;;1.67;1.67;;;;;21.01;47.13;102053.44;5069035;28;45510;-82
2022/05/21 07:40:08;;;;;;;;;0.00;0.00;;;;;21.10;46.71;102051.97;5069411;28;45650;-82
2022/05/21 07:42:35;;;;;;;;;1.00;1.00;;;;;21.19;46.15;102043.19;5064750;28;45711;-81
2022/05/21 07:45:00;;;;;;;;;0.33;0.33;;;;;21.12;46.48;102018.34;5066020;28;45561;-81
2022/05/21 07:47:26;;;;;;;;;1.00;1.00;;;;;21.31;46.85;102038.78;5073745;27;45477;-81
2022/05/21 07:49:56;;;;;;;;;1.00;1.00;;;;;21.39;45.83;102039.13;5071520;28;45523;-81
2022/05/21 07:52:22;;;;;;;;;0.33;0.33;;;;;21.41;45.76;102032.63;5066721;28;45415;-81
2022/05/21 07:54:47;;;;;;;;;0.33;0.33;;;;;21.52;45.11;102033.72;5065609;27;45340;-81
2022/05/21 07:57:13;;;;;;;;;1.00;1.00;;;;;21.46;45.16;102011.47;5068737;28;46023;-81
2022/05/21 07:59:38;;;;;;;;;1.00;1.00;;;;;21.67;44.37;102030.81;5065864;28;46531;-81
2022/05/21 08:02:05;;;;;;;;;4.00;1.00;;;;;21.84;43.91;102036.91;5069109;28;45903;-81
2022/05/21 08:04:31;;;;;;;;;1.67;0.00;;;;;21.76;43.24;102007.59;5063572;28;45582;-81
2022/05/21 08:06:56;;;;;;;;;0.00;0.00;;;;;22.03;43.38;102041.88;5071915;27;45523;-81
2022/05/21 08:09:22;;;;;;;;;15.33;11.33;;;;;22.00;43.60;102029.41;5066805;28;45447;-81
2022/05/21 08:11:47;;;;;;;;;2.00;2.00;;;;;22.05;43.40;102021.78;5066722;28;45923;-81
2022/05/21 08:14:13;;;;;;;;;1.00;1.00;;;;;22.23;44.46;102041.38;5066577;27;45556;-81
2022/05/21 08:16:38;;;;;;;;;1.67;0.00;;;;;22.37;42.53;102043.06;5069127;28;45411;-81
2022/05/21 08:19:04;;;;;;;;;0.00;0.00;;;;;22.43;42.01;102026.34;5067305;27;45669;-81
2022/05/21 08:21:31;;;;;;;;;0.00;0.00;;;;;22.54;42.01;102030.97;5086402;27;49206;-81
2022/05/21 08:29:35;;;;;;;;;1.00;1.00;;;;;22.70;41.18;102030.69;5065503;28;45434;-81
2022/05/21 08:32:02;;;;;;;;;1.00;0.00;;;;;22.77;41.26;102031.97;5071064;28;45389;-81
2022/05/21 08:34:29;;;;;;;;;2.00;2.00;;;;;22.86;41.86;102019.56;5058592;28;45473;-81
2022/05/21 08:36:55;;;;;;;;;1.00;1.00;;;;;23.02;41.66;102024.72;5069731;28;45385;-81
2022/05/21 08:39:21;;;;;;;;;0.00;0.00;;;;;23.20;41.13;102022.44;5069396;27;45408;-81
2022/05/21 08:41:53;;;;;;;;;1.67;1.67;;;;;23.45;41.38;102024.13;5065030;27;45930;-81
2022/05/21 08:44:31;;;;;;;;;1.00;1.00;;;;;23.84;40.96;102019.31;5071891;28;45292;-81
2022/05/21 08:47:22;;;;;;;;;2.00;0.00;;;;;24.34;40.44;102019.78;5068222;27;45469;-83
2022/05/21 08:49:53;;;;;;;;;0.00;0.00;;;;;24.91;38.61;102015.09;5067623;28;45613;-83
2022/05/21 08:52:23;;;;;;;;;1.00;0.00;;;;;25.49;38.56;102013.69;5071267;28;45515;-83
2022/05/21 08:54:52;;;;;;;;;0.33;0.00;;;;;25.98;37.16;102011.28;5063745;28;45353;-83
2022/05/21 08:57:32;;;;;;;;;0.00;0.00;;;;;26.41;35.84;102010.16;5062853;27;45347;-83
2022/05/21 09:00:06;;;;;;;;;1.00;0.00;;;;;26.73;35.69;102011.81;5065682;28;45375;-83
2022/05/21 09:02:34;;;;;;;;;0.00;0.00;;;;;27.19;34.34;102006.69;5070602;28;46462;-83
2022/05/21 09:05:08;;;;;;;;;1.00;0.00;;;;;27.72;33.98;101996.09;5071032;27;45363;-83
2022/05/21 09:07:50;;;;;;;;;0.00;0.00;;;;;28.42;34.22;101996.53;5066091;28;45378;-83
2022/05/21 09:10:54;;;;;;;;;0.00;0.00;;;;;29.19;32.96;101996.13;5071663;28;45518;-83
2022/05/21 09:13:34;;;;;;;;;10.00;2.67;;;;;29.79;31.82;101984.38;5071084;28;45855;-83
2022/05/21 09:18:45;;;;;;;;;0.00;0.00;;;;;30.80;30.45;101983.56;5069871;28;45514;-83
2022/05/21 09:21:22;;;;;;;;;0.00;0.00;;;;;31.34;29.34;101978.44;5074086;28;45350;-83
2022/05/21 09:23:52;;;;;;;;;1.50;0.00;;;;;31.66;28.93;101966.53;5069921;28;45484;-84
2022/05/21 09:26:21;;;;;;;;;1.00;1.00;;;;;32.10;28.09;101965.16;5075478;27;45393;-84
2022/05/21 09:28:48;;;;;;;;;0.00;0.00;;;;;32.38;28.00;101963.66;5072732;28;45457;-84
2022/05/21 09:31:20;;;;;;;;;1.00;1.00;;;;;32.52;27.33;101947.38;5074753;28;45562;-84
2022/05/21 09:33:47;;;;;;;;;1.00;1.00;;;;;32.85;26.99;101963.69;5068600;28;47755;-83
2022/05/21 09:36:30;;;;;;;;;0.33;0.33;;;;;33.10;27.07;101948.66;5067795;28;45585;-83
2022/05/21 09:38:55;;;;;;;;;0.00;0.00;;;;;33.57;26.30;101944.75;5065042;28;45226;-80
2022/05/21 09:41:26;;;;;;;;;1.00;0.00;;;;;34.17;25.29;101942.00;5075679;28;45467;-79
2022/05/21 09:47:09;;;;;;;;;1.33;1.33;;;;;35.29;24.44;101955.31;5072588;28;45794;-82
2022/05/21 09:49:35;;;;;;;;;1.00;1.00;;;;;35.65;23.50;101935.72;5075305;28;45384;-81
2022/05/21 09:52:05;;;;;;;;;0.33;0.33;;;;;36.24;22.71;101953.75;5070397;27;45540;-83
2022/05/21 09:54:40;;;;;;;;;1.00;0.00;;;;;36.87;22.95;101955.41;5069425;28;46228;-84
2022/05/21 09:57:19;;;;;;;;;0.33;0.33;;;;;37.59;22.10;101948.16;5072751;27;45589;-83
2022/05/21 10:00:01;;;;;;;;;0.67;0.33;;;;;38.49;21.02;101941.81;5077281;27;45391;-83
2022/05/21 10:02:43;;;;;;;;;2.00;1.00;;;;;39.02;19.84;101941.47;5081805;27;45451;-83
2022/05/21 10:05:12;;;;;;;;;0.67;0.67;;;;;40.08;18.97;101947.88;5063987;28;48142;-81
2022/05/21 10:13:20;;;;;;;;;0.00;0.00;;;;;43.41;16.14;101953.38;5071970;28;45380;-81
2022/05/21 10:15:55;;;;;;;;;1.00;0.00;;;;;44.12;15.54;101955.50;5062307;27;46083;-81
2022/05/21 10:18:29;;;;;;;;;3.00;1.33;;;;;44.92;13.92;101955.75;5065162;28;45499;-81
2022/05/21 10:20:59;;;;;;;;;0.00;0.00;;;;;45.68;13.92;101952.66;5066907;28;45462;-81
2022/05/21 10:23:43;;;;;;;;;0.67;0.33;;;;;44.53;14.64;101941.03;5064990;28;45458;-80
2022/05/21 10:26:37;;;;;;;;;1.00;1.00;;;;;45.75;13.96;101948.72;5067017;28;46146;-82
2022/05/21 10:29:15;;;;;;;;;1.00;0.67;;;;;46.52;13.08;101950.66;5066593;27;45442;-83
2022/05/21 10:31:55;;;;;;;;;0.00;0.00;;;;;46.47;12.49;101947.00;5067248;28;45433;-88
2022/05/21 10:34:23;;;;;;;;;0.00;0.00;;;;;46.54;12.49;101953.22;5069472;27;45451;-83
2022/05/21 10:37:17;;;;;;;;;0.00;0.00;;;;;46.12;12.54;101952.25;5067057;28;45534;-86
2022/05/21 10:40:13;;;;;;;;;1.00;1.00;;;;;46.50;13.43;101940.78;5068743;28;45444;-83
2022/05/21 10:43:15;;;;;;;;;0.00;0.00;;;;;46.57;12.66;101932.91;5067536;28;45472;-84
2022/05/21 10:45:46;;;;;;;;;0.00;0.00;;;;;46.01;13.37;101939.28;5061539;28;45751;-83
2022/05/21 10:48:26;;;;;;;;;0.67;0.67;;;;;44.18;14.25;101931.09;5083169;27;47463;-84
2022/05/21 10:50:54;;;;;;;;;0.00;0.00;;;;;41.74;16.40;101925.59;5064892;28;45480;-84
2022/05/21 10:53:40;;;;;;;;;1.67;0.00;;;;;41.44;16.18;101928.53;5070008;27;45478;-85
2022/05/21 10:56:21;;;;;;;;;4.00;2.00;;;;;40.92;17.07;101928.38;5066409;28;45683;-80
2022/05/21 10:59:00;;;;;;;;;0.67;0.67;;;;;39.87;17.64;101924.91;5071165;28;45633;-82
2022/05/21 11:01:58;;;;;;;;;0.67;0.67;;;;;38.95;18.29;101919.22;5064603;27;45563;-82
2022/05/21 11:04:42;;;;;;;;;1.00;1.00;;;;;38.07;19.64;101913.53;5062367;28;45480;-82
2022/05/21 11:07:23;;;;;;;;;2.00;0.00;;;;;37.42;21.71;101916.25;5066435;27;45360;-85
2022/05/21 11:09:57;;;;;;;;;1.67;1.00;;;;;36.84;22.34;101912.25;5065930;28;46569;-84
2022/05/21 11:12:34;;;;;;;;;0.00;0.00;;;;;36.23;22.96;101893.75;5068450;28;45399;-84
2022/05/21 11:15:05;;;;;;;;;0.67;0.67;;;;;35.83;25.59;101893.56;5063567;28;45400;-84
2022/05/21 11:17:49;;;;;;;;;0.00;0.00;;;;;35.58;24.82;101907.06;5067872;28;45365;-83
2022/05/21 11:20:37;;;;;;;;;3.00;2.00;;;;;35.23;26.75;101906.22;5067091;28;45549;-83
2022/05/21 11:23:15;;;;;;;;;1.00;1.00;;;;;34.96;25.81;101905.09;5067819;28;45468;-83
2022/05/21 11:25:46;;;;;;;;;5.67;3.67;;;;;34.58;26.65;101884.09;5085387;27;45355;-83
2022/05/21 11:28:23;;;;;;;;;0.33;0.00;;;;;34.50;27.07;101895.31;5064885;27;45455;-83
2022/05/21 11:30:56;;;;;;;;;0.00;0.00;;;;;34.11;26.20;101881.88;5070232;28;47301;-83
2022/05/21 11:38:55;;;;;;;;;4.00;2.33;;;;;33.23;29.64;101876.19;5061101;28;45450;-83
2022/05/21 11:41:27;;;;;;;;;2.33;2.00;;;;;33.05;27.49;101875.69;5072904;28;46421;-83
2022/05/21 11:46:50;;;;;;;;;5.67;5.00;;;;;32.62;28.35;101861.56;5071323;28;45407;-79
2022/05/21 11:49:28;;;;;;;;;8.67;8.67;;;;;32.38;27.47;101856.03;5074471;27;45592;-78
2022/05/21 11:52:00;;;;;;;;;6.00;6.00;;;;;32.17;28.93;101861.31;5055846;28;47132;-79
2022/05/21 11:54:57;;;;;;;;;2.67;2.67;;;;;31.91;28.21;101848.72;5075008;28;45512;-76
2022/05/21 11:57:43;;;;;;;;;2.00;1.00;;;;;31.80;29.37;101862.91;5068447;28;45899;-76
2022/05/21 12:00:28;;;;;;;;;4.00;2.67;;;;;31.54;31.08;101855.78;5067578;28;45419;-78
2022/05/21 12:02:54;;;;;;;;;1.67;1.67;;;;;31.41;30.74;101854.63;5062056;28;46345;-76
2022/05/21 12:05:41;;;;;;;;;1.00;1.00;;;;;31.25;31.56;101855.50;5061911;28;45709;-79
2022/05/21 12:08:22;;;;;;;;;2.00;2.00;;;;;31.08;30.95;101844.50;5065331;27;45512;-81
2022/05/21 12:11:08;;;;;;;;;3.00;3.00;;;;;31.02;32.31;101852.63;5066034;28;45353;-84
2022/05/21 12:13:33;;;;;;;;;3.67;3.67;;;;;30.92;32.72;101848.16;5085144;27;47499;-84
2022/05/21 12:16:21;;;;;;;;;3.00;2.00;;;;;30.74;31.29;101832.84;5070878;28;45392;-82
2022/05/21 12:18:58;;;;;;;;;1.67;1.67;;;;;30.62;33.22;101822.16;5075406;28;45479;-86
2022/05/21 12:21:32;;;;;;;;;1.33;1.33;;;;;30.62;32.41;101841.44;5060041;28;45802;-88
2022/05/21 12:24:25;;;;;;;;;5.00;5.00;;;;;30.55;30.56;101840.41;5065753;28;48002;-83